CKS5 KONT-KDFW
Flight info
| Callsign | CKS5 |
|---|---|
| Flight time | 2h 21m |
| Altitude | 35000 |
| Route | RAJEE4 MTBAL CNERY BLH J169 TFD J50 SSO J4 INK GEEKY SOCKK4 |
| Aircraft | B77L/H-SDE1E2E3FGHIJ2J3J4J5M1RWXY/LB1D1 |
Departure
| Time | 2026-05-07 02:03 |
|---|---|
| Airport | Ontario International Airport (KONT) |
Arrival
| Time | 2026-05-07 04:24 |
|---|---|
| Airport | Dallas Fort Worth International Airport (KDFW) |
| Time | Latitude | Longitude | Altitude | Speed | Heading |
|---|---|---|---|---|---|
| 2026-05-07 01:39 | 34.04966 | -117.58160 | 910 ft | 0 kts | 269° |
| 2026-05-07 01:56 | 34.04966 | -117.58153 | 910 ft | 2 kts | 269° |
| 2026-05-07 01:56 | 34.04966 | -117.58134 | 910 ft | 2 kts | 269° |
| 2026-05-07 01:56 | 34.04966 | -117.58116 | 911 ft | 2 kts | 271° |
| 2026-05-07 01:56 | 34.04964 | -117.58099 | 911 ft | 2 kts | 297° |
| 2026-05-07 01:57 | 34.04955 | -117.58084 | 911 ft | 2 kts | 318° |
| 2026-05-07 01:57 | 34.04943 | -117.58075 | 911 ft | 2 kts | 339° |
| 2026-05-07 01:57 | 34.04929 | -117.58071 | 910 ft | 0 kts | 359° |
| 2026-05-07 01:57 | 34.04925 | -117.58071 | 910 ft | 0 kts | 1° |
| 2026-05-07 01:59 | 34.04932 | -117.58071 | 910 ft | 3 kts | 1° |
| 2026-05-07 02:00 | 34.04969 | -117.58071 | 912 ft | 7 kts | 359° |
| 2026-05-07 02:00 | 34.05035 | -117.58071 | 914 ft | 11 kts | 359° |
| 2026-05-07 02:00 | 34.05121 | -117.58071 | 917 ft | 12 kts | 0° |
| 2026-05-07 02:00 | 34.05204 | -117.58073 | 921 ft | 11 kts | 347° |
| 2026-05-07 02:01 | 34.05245 | -117.58149 | 922 ft | 12 kts | 271° |
| 2026-05-07 02:01 | 34.05280 | -117.58246 | 923 ft | 13 kts | 331° |
| 2026-05-07 02:01 | 34.05369 | -117.58269 | 927 ft | 12 kts | 356° |
| 2026-05-07 02:01 | 34.05449 | -117.58270 | 932 ft | 11 kts | 359° |
| 2026-05-07 02:02 | 34.05500 | -117.58322 | 934 ft | 10 kts | 269° |
| 2026-05-07 02:02 | 34.05499 | -117.58336 | 934 ft | 0 kts | 271° |
| 2026-05-07 02:02 | 34.05498 | -117.58443 | 932 ft | 50 kts | 269° |
| 2026-05-07 02:02 | 34.05491 | -117.59301 | 930 ft | 151 kts | 270° |
| 2026-05-07 02:03 | 34.05493 | -117.60928 | 1062 ft | 229 kts | 270° |
| 2026-05-07 02:03 | 34.05495 | -117.62950 | 2068 ft | 253 kts | 270° |
| 2026-05-07 02:03 | 34.05495 | -117.64880 | 3783 ft | 230 kts | 270° |
| 2026-05-07 02:03 | 34.05495 | -117.66858 | 4547 ft | 245 kts | 270° |
| 2026-05-07 02:04 | 34.05423 | -117.68908 | 5415 ft | 251 kts | 258° |
| 2026-05-07 02:04 | 34.04685 | -117.70786 | 6297 ft | 256 kts | 230° |
| 2026-05-07 02:04 | 34.03253 | -117.72075 | 6844 ft | 261 kts | 202° |
| 2026-05-07 02:04 | 34.01476 | -117.72386 | 6933 ft | 261 kts | 172° |
| 2026-05-07 02:05 | 33.99810 | -117.71572 | 6924 ft | 263 kts | 140° |
| 2026-05-07 02:05 | 33.98651 | -117.69797 | 6951 ft | 273 kts | 118° |
| 2026-05-07 02:05 | 33.97786 | -117.67735 | 6950 ft | 275 kts | 116° |
| 2026-05-07 02:05 | 33.96955 | -117.65682 | 6950 ft | 276 kts | 116° |
| 2026-05-07 02:06 | 33.96110 | -117.63590 | 6949 ft | 276 kts | 116° |
| 2026-05-07 02:06 | 33.95281 | -117.61538 | 6950 ft | 276 kts | 116° |
| 2026-05-07 02:06 | 33.94443 | -117.59466 | 6949 ft | 276 kts | 116° |
| 2026-05-07 02:06 | 33.93602 | -117.57388 | 6950 ft | 276 kts | 116° |
| 2026-05-07 02:07 | 33.92747 | -117.55276 | 7079 ft | 292 kts | 116° |
| 2026-05-07 02:07 | 33.90212 | -117.51682 | 9488 ft | 282 kts | 143° |
| 2026-05-07 02:07 | 33.88609 | -117.50291 | 10328 ft | 290 kts | 144° |
| 2026-05-07 02:08 | 33.86890 | -117.48846 | 10938 ft | 307 kts | 144° |
| 2026-05-07 02:08 | 33.85098 | -117.47346 | 11555 ft | 323 kts | 144° |
| 2026-05-07 02:08 | 33.83212 | -117.45766 | 12190 ft | 339 kts | 144° |
| 2026-05-07 02:08 | 33.81239 | -117.44114 | 12835 ft | 354 kts | 144° |
| 2026-05-07 02:09 | 33.79166 | -117.42379 | 13492 ft | 369 kts | 144° |
| 2026-05-07 02:09 | 33.77027 | -117.40585 | 14143 ft | 383 kts | 144° |
| 2026-05-07 02:09 | 33.74916 | -117.38552 | 14881 ft | 394 kts | 135° |
| 2026-05-07 02:09 | 33.73114 | -117.36072 | 15765 ft | 400 kts | 125° |
| 2026-05-07 02:10 | 33.71672 | -117.33164 | 16672 ft | 406 kts | 115° |
| 2026-05-07 02:10 | 33.70692 | -117.29993 | 17540 ft | 411 kts | 105° |
| 2026-05-07 02:10 | 33.70181 | -117.26600 | 18401 ft | 416 kts | 97° |
| 2026-05-07 02:10 | 33.69858 | -117.23173 | 19245 ft | 421 kts | 96° |
| 2026-05-07 02:11 | 33.69532 | -117.19623 | 20085 ft | 427 kts | 96° |
| 2026-05-07 02:11 | 33.69202 | -117.16076 | 20891 ft | 432 kts | 96° |
| 2026-05-07 02:11 | 33.68864 | -117.12489 | 21672 ft | 437 kts | 96° |
| 2026-05-07 02:11 | 33.68519 | -117.08854 | 22429 ft | 442 kts | 96° |
| 2026-05-07 02:12 | 33.68169 | -117.05186 | 23160 ft | 447 kts | 96° |
| 2026-05-07 02:12 | 33.67816 | -117.01521 | 23860 ft | 452 kts | 96° |
| 2026-05-07 02:12 | 33.67454 | -116.97772 | 24545 ft | 456 kts | 96° |
| 2026-05-07 02:12 | 33.67085 | -116.93971 | 25212 ft | 461 kts | 96° |
| 2026-05-07 02:13 | 33.66712 | -116.90134 | 25858 ft | 466 kts | 96° |
| 2026-05-07 02:13 | 33.66333 | -116.86264 | 26505 ft | 470 kts | 96° |
| 2026-05-07 02:13 | 33.65947 | -116.82327 | 27159 ft | 475 kts | 96° |
| 2026-05-07 02:13 | 33.65560 | -116.78400 | 27805 ft | 480 kts | 96° |
| 2026-05-07 02:14 | 33.65166 | -116.74400 | 28447 ft | 484 kts | 96° |
| 2026-05-07 02:14 | 33.64773 | -116.70403 | 29078 ft | 489 kts | 96° |
| 2026-05-07 02:14 | 33.64372 | -116.66331 | 29825 ft | 491 kts | 96° |
| 2026-05-07 02:14 | 33.63975 | -116.62328 | 30729 ft | 488 kts | 96° |
| 2026-05-07 02:15 | 33.63577 | -116.58324 | 31657 ft | 483 kts | 96° |
| 2026-05-07 02:15 | 33.63180 | -116.54343 | 32467 ft | 481 kts | 96° |
| 2026-05-07 02:15 | 33.62789 | -116.50431 | 33159 ft | 480 kts | 96° |
| 2026-05-07 02:15 | 33.62402 | -116.46578 | 33790 ft | 479 kts | 96° |
| 2026-05-07 02:16 | 33.62003 | -116.42612 | 34446 ft | 478 kts | 96° |
| 2026-05-07 02:16 | 33.61601 | -116.38635 | 34934 ft | 480 kts | 96° |
| 2026-05-07 02:16 | 33.60870 | -116.30719 | 34997 ft | 477 kts | 92° |
| 2026-05-07 02:17 | 33.60718 | -116.22767 | 35003 ft | 476 kts | 91° |
| 2026-05-07 02:17 | 33.60560 | -116.14861 | 35003 ft | 476 kts | 91° |
| 2026-05-07 02:18 | 33.60376 | -116.07013 | 35003 ft | 476 kts | 91° |
| 2026-05-07 02:18 | 33.60372 | -115.99062 | 35007 ft | 476 kts | 87° |
| 2026-05-07 02:19 | 33.60686 | -115.91122 | 35003 ft | 476 kts | 87° |
| 2026-05-07 02:19 | 33.60971 | -115.83220 | 35002 ft | 476 kts | 88° |
| 2026-05-07 02:20 | 33.61237 | -115.75281 | 35002 ft | 476 kts | 88° |
| 2026-05-07 02:20 | 33.61487 | -115.67374 | 35002 ft | 476 kts | 88° |
| 2026-05-07 02:21 | 33.61729 | -115.59444 | 35002 ft | 476 kts | 88° |
| 2026-05-07 02:21 | 33.61698 | -115.51549 | 35002 ft | 477 kts | 91° |
| 2026-05-07 02:22 | 33.61537 | -115.45957 | 35002 ft | 476 kts | 91° |
| 2026-05-07 02:22 | 33.61318 | -115.38041 | 35002 ft | 476 kts | 91° |
| 2026-05-07 02:23 | 33.61154 | -115.31902 | 35002 ft | 476 kts | 92° |
| 2026-05-07 02:23 | 33.60963 | -115.24730 | 35003 ft | 476 kts | 92° |
| 2026-05-07 02:24 | 33.60751 | -115.16777 | 35003 ft | 476 kts | 92° |
| 2026-05-07 02:24 | 33.60537 | -115.08861 | 35003 ft | 476 kts | 92° |
| 2026-05-07 02:25 | 33.60318 | -115.00911 | 35003 ft | 476 kts | 92° |
| 2026-05-07 02:25 | 33.60097 | -114.93044 | 35003 ft | 476 kts | 92° |
| 2026-05-07 02:26 | 33.59870 | -114.85111 | 35003 ft | 476 kts | 92° |
| 2026-05-07 02:26 | 33.59638 | -114.77171 | 35003 ft | 476 kts | 92° |
| 2026-05-07 02:27 | 33.59101 | -114.69292 | 35003 ft | 477 kts | 96° |
| 2026-05-07 02:27 | 33.58358 | -114.61428 | 35003 ft | 476 kts | 96° |
| 2026-05-07 02:28 | 33.57625 | -114.53516 | 35003 ft | 476 kts | 96° |
| 2026-05-07 02:28 | 33.56900 | -114.45623 | 35003 ft | 476 kts | 96° |
| 2026-05-07 02:29 | 33.56177 | -114.37742 | 35003 ft | 476 kts | 96° |
| 2026-05-07 02:29 | 33.55454 | -114.29875 | 35003 ft | 476 kts | 96° |
| 2026-05-07 02:30 | 33.54727 | -114.22006 | 35002 ft | 476 kts | 96° |
| 2026-05-07 02:30 | 33.53995 | -114.14135 | 35002 ft | 476 kts | 96° |
| 2026-05-07 02:31 | 33.53257 | -114.06230 | 35002 ft | 476 kts | 96° |
| 2026-05-07 02:31 | 33.52516 | -113.98357 | 35002 ft | 476 kts | 96° |
| 2026-05-07 02:32 | 33.51770 | -113.90486 | 35002 ft | 476 kts | 96° |
| 2026-05-07 02:32 | 33.51019 | -113.82608 | 35002 ft | 476 kts | 96° |
| 2026-05-07 02:33 | 33.50262 | -113.74720 | 35002 ft | 476 kts | 96° |
| 2026-05-07 02:33 | 33.49498 | -113.66821 | 35002 ft | 476 kts | 96° |
| 2026-05-07 02:34 | 33.48738 | -113.59007 | 35002 ft | 476 kts | 96° |
| 2026-05-07 02:34 | 33.47967 | -113.51142 | 35002 ft | 476 kts | 96° |
| 2026-05-07 02:35 | 33.47194 | -113.43301 | 35002 ft | 476 kts | 96° |
| 2026-05-07 02:35 | 33.46183 | -113.35483 | 35000 ft | 476 kts | 105° |
| 2026-05-07 02:36 | 33.43723 | -113.28213 | 35003 ft | 477 kts | 115° |
| 2026-05-07 02:36 | 33.40908 | -113.21053 | 35003 ft | 476 kts | 115° |
| 2026-05-07 02:37 | 33.38079 | -113.13880 | 35003 ft | 476 kts | 115° |
| 2026-05-07 02:37 | 33.35269 | -113.06776 | 35003 ft | 476 kts | 115° |
| 2026-05-07 02:38 | 33.32445 | -112.99651 | 35003 ft | 476 kts | 115° |
| 2026-05-07 02:38 | 33.29617 | -112.92532 | 35003 ft | 476 kts | 115° |
| 2026-05-07 02:39 | 33.26756 | -112.85344 | 35003 ft | 476 kts | 115° |
| 2026-05-07 02:39 | 33.23920 | -112.78238 | 35003 ft | 476 kts | 115° |
| 2026-05-07 02:40 | 33.21976 | -112.73372 | 34984 ft | 477 kts | 115° |
| 2026-05-07 02:40 | 33.19118 | -112.66233 | 34986 ft | 477 kts | 115° |
| 2026-05-07 02:41 | 33.16266 | -112.59125 | 34909 ft | 475 kts | 115° |
| 2026-05-07 02:41 | 33.13401 | -112.51997 | 35049 ft | 474 kts | 114° |
| 2026-05-07 02:42 | 33.11980 | -112.48468 | 34925 ft | 473 kts | 113° |
| 2026-05-07 02:42 | 33.10561 | -112.44950 | 34962 ft | 471 kts | 114° |
| 2026-05-07 02:42 | 33.07692 | -112.37842 | 34984 ft | 482 kts | 117° |
| 2026-05-07 02:43 | 33.04802 | -112.30695 | 34980 ft | 481 kts | 118° |
| 2026-05-07 02:43 | 33.01875 | -112.23474 | 34989 ft | 483 kts | 118° |
| 2026-05-07 02:44 | 32.98962 | -112.16302 | 34976 ft | 483 kts | 117° |
| 2026-05-07 02:44 | 32.96022 | -112.09077 | 34985 ft | 486 kts | 118° |
| 2026-05-07 02:45 | 32.93086 | -112.01880 | 34973 ft | 485 kts | 118° |
| 2026-05-07 02:45 | 32.90134 | -111.94656 | 34977 ft | 486 kts | 118° |
| 2026-05-07 02:46 | 32.87730 | -111.87163 | 34984 ft | 490 kts | 107° |
| 2026-05-07 02:46 | 32.85990 | -111.79284 | 34982 ft | 492 kts | 107° |
| 2026-05-07 02:47 | 32.84253 | -111.71413 | 34986 ft | 492 kts | 107° |
| 2026-05-07 02:47 | 32.82500 | -111.63531 | 34996 ft | 494 kts | 108° |
| 2026-05-07 02:48 | 32.80747 | -111.55684 | 34994 ft | 494 kts | 108° |
| 2026-05-07 02:48 | 32.78967 | -111.47747 | 34998 ft | 498 kts | 108° |
| 2026-05-07 02:49 | 32.77183 | -111.39825 | 35018 ft | 498 kts | 108° |
| 2026-05-07 02:49 | 32.75378 | -111.31831 | 35019 ft | 500 kts | 109° |
| 2026-05-07 02:50 | 32.73592 | -111.23952 | 35027 ft | 500 kts | 109° |
| 2026-05-07 02:50 | 32.71764 | -111.15914 | 35045 ft | 503 kts | 109° |
| 2026-05-07 02:51 | 32.69950 | -111.07960 | 35069 ft | 503 kts | 109° |
| 2026-05-07 02:51 | 32.68107 | -110.99910 | 35086 ft | 503 kts | 110° |
| 2026-05-07 02:52 | 32.66270 | -110.91911 | 35103 ft | 506 kts | 110° |
| 2026-05-07 02:52 | 32.64423 | -110.83886 | 35115 ft | 504 kts | 110° |
| 2026-05-07 02:53 | 32.62574 | -110.75890 | 35133 ft | 507 kts | 110° |
| 2026-05-07 02:53 | 32.60698 | -110.67797 | 35135 ft | 509 kts | 110° |
| 2026-05-07 02:54 | 32.58824 | -110.59733 | 35118 ft | 508 kts | 110° |
| 2026-05-07 02:54 | 32.56943 | -110.51673 | 35091 ft | 508 kts | 111° |
| 2026-05-07 02:55 | 32.55045 | -110.43568 | 35085 ft | 512 kts | 111° |
| 2026-05-07 02:55 | 32.53154 | -110.35509 | 35116 ft | 512 kts | 111° |
| 2026-05-07 02:56 | 32.51230 | -110.27344 | 35135 ft | 512 kts | 112° |
| 2026-05-07 02:56 | 32.49312 | -110.19228 | 35146 ft | 513 kts | 112° |
| 2026-05-07 02:57 | 32.47393 | -110.11131 | 35138 ft | 513 kts | 112° |
| 2026-05-07 02:57 | 32.45460 | -110.03007 | 35120 ft | 516 kts | 112° |
| 2026-05-07 02:58 | 32.43527 | -109.94898 | 35122 ft | 513 kts | 113° |
| 2026-05-07 02:58 | 32.41563 | -109.86697 | 35143 ft | 517 kts | 113° |
| 2026-05-07 02:59 | 32.39611 | -109.78559 | 35163 ft | 516 kts | 113° |
| 2026-05-07 02:59 | 32.37645 | -109.70397 | 35169 ft | 518 kts | 113° |
| 2026-05-07 03:00 | 32.35676 | -109.62241 | 35151 ft | 518 kts | 113° |
| 2026-05-07 03:00 | 32.33686 | -109.54036 | 35148 ft | 522 kts | 113° |
| 2026-05-07 03:01 | 32.31682 | -109.45785 | 35142 ft | 519 kts | 114° |
| 2026-05-07 03:01 | 32.29681 | -109.37580 | 35139 ft | 523 kts | 114° |
| 2026-05-07 03:02 | 32.27667 | -109.29339 | 35123 ft | 522 kts | 114° |
| 2026-05-07 03:02 | 32.26366 | -109.20838 | 35128 ft | 533 kts | 104° |
| 2026-05-07 03:03 | 32.25552 | -109.12117 | 35142 ft | 537 kts | 103° |
| 2026-05-07 03:03 | 32.24732 | -109.03397 | 35160 ft | 536 kts | 103° |
| 2026-05-07 03:04 | 32.23895 | -108.94641 | 35166 ft | 539 kts | 104° |
| 2026-05-07 03:04 | 32.23047 | -108.85846 | 35163 ft | 540 kts | 104° |
| 2026-05-07 03:05 | 32.22191 | -108.77058 | 35145 ft | 540 kts | 104° |
| 2026-05-07 03:05 | 32.21330 | -108.68285 | 35151 ft | 539 kts | 104° |
| 2026-05-07 03:06 | 32.20462 | -108.59531 | 35161 ft | 541 kts | 103° |
| 2026-05-07 03:06 | 32.19584 | -108.50727 | 35181 ft | 542 kts | 103° |
| 2026-05-07 03:07 | 32.18804 | -108.42956 | 35128 ft | 540 kts | 103° |
| 2026-05-07 03:07 | 32.18361 | -108.38557 | 35261 ft | 537 kts | 104° |
| 2026-05-07 03:07 | 32.17920 | -108.34223 | 35266 ft | 541 kts | 104° |
| 2026-05-07 03:08 | 32.17027 | -108.25451 | 35266 ft | 538 kts | 104° |
| 2026-05-07 03:08 | 32.16128 | -108.16679 | 35265 ft | 537 kts | 104° |
| 2026-05-07 03:09 | 32.15225 | -108.07942 | 35259 ft | 540 kts | 104° |
| 2026-05-07 03:09 | 32.14317 | -107.99194 | 35253 ft | 537 kts | 104° |
| 2026-05-07 03:10 | 32.13401 | -107.90452 | 35249 ft | 540 kts | 104° |
| 2026-05-07 03:10 | 32.12481 | -107.81719 | 35246 ft | 539 kts | 104° |
| 2026-05-07 03:11 | 32.11549 | -107.72935 | 35243 ft | 539 kts | 104° |
| 2026-05-07 03:11 | 32.10614 | -107.64181 | 35239 ft | 539 kts | 104° |
| 2026-05-07 03:12 | 32.09678 | -107.55468 | 35239 ft | 539 kts | 104° |
| 2026-05-07 03:12 | 32.08741 | -107.46812 | 35239 ft | 537 kts | 104° |
| 2026-05-07 03:13 | 32.07793 | -107.38125 | 35247 ft | 541 kts | 104° |
| 2026-05-07 03:13 | 32.06838 | -107.29398 | 35237 ft | 538 kts | 104° |
| 2026-05-07 03:14 | 32.05871 | -107.20641 | 35244 ft | 539 kts | 105° |
| 2026-05-07 03:15 | 32.04430 | -107.07686 | 35242 ft | 538 kts | 105° |
| 2026-05-07 03:15 | 32.03461 | -106.99039 | 35239 ft | 538 kts | 105° |
| 2026-05-07 03:16 | 32.02475 | -106.90295 | 35234 ft | 538 kts | 105° |
| 2026-05-07 03:16 | 32.01495 | -106.81660 | 35233 ft | 538 kts | 105° |
| 2026-05-07 03:17 | 32.00496 | -106.72917 | 35232 ft | 537 kts | 105° |
| 2026-05-07 03:17 | 31.99496 | -106.64217 | 35245 ft | 540 kts | 105° |
| 2026-05-07 03:18 | 31.98489 | -106.55505 | 35255 ft | 537 kts | 105° |
| 2026-05-07 03:18 | 31.97482 | -106.46854 | 35264 ft | 539 kts | 105° |
| 2026-05-07 03:19 | 31.96466 | -106.38163 | 35252 ft | 536 kts | 105° |
| 2026-05-07 03:19 | 31.95446 | -106.29511 | 35224 ft | 537 kts | 105° |
| 2026-05-07 03:20 | 31.95023 | -106.20649 | 35222 ft | 546 kts | 97° |
| 2026-05-07 03:20 | 31.94904 | -106.11733 | 35245 ft | 546 kts | 97° |
| 2026-05-07 03:21 | 31.94772 | -106.02840 | 35268 ft | 545 kts | 97° |
| 2026-05-07 03:21 | 31.94639 | -105.94704 | 35282 ft | 546 kts | 97° |
| 2026-05-07 03:22 | 31.94487 | -105.85850 | 35285 ft | 545 kts | 98° |
| 2026-05-07 03:22 | 31.94324 | -105.76926 | 35285 ft | 545 kts | 97° |
| 2026-05-07 03:23 | 31.94153 | -105.68028 | 35290 ft | 547 kts | 97° |
| 2026-05-07 03:23 | 31.93978 | -105.59123 | 35297 ft | 544 kts | 97° |
| 2026-05-07 03:24 | 31.93793 | -105.50176 | 35305 ft | 546 kts | 97° |
| 2026-05-07 03:24 | 31.93604 | -105.41305 | 35291 ft | 547 kts | 97° |
| 2026-05-07 03:25 | 31.93408 | -105.32377 | 35246 ft | 545 kts | 98° |
| 2026-05-07 03:25 | 31.93223 | -105.23525 | 35215 ft | 544 kts | 98° |
| 2026-05-07 03:26 | 31.93034 | -105.14626 | 35206 ft | 545 kts | 98° |
| 2026-05-07 03:26 | 31.92838 | -105.05738 | 35200 ft | 544 kts | 98° |
| 2026-05-07 03:27 | 31.92637 | -104.96899 | 35198 ft | 546 kts | 98° |
| 2026-05-07 03:27 | 31.92429 | -104.88014 | 35245 ft | 544 kts | 98° |
| 2026-05-07 03:28 | 31.92215 | -104.79191 | 35291 ft | 545 kts | 98° |
| 2026-05-07 03:28 | 31.91994 | -104.70325 | 35319 ft | 545 kts | 98° |
| 2026-05-07 03:29 | 31.91768 | -104.61453 | 35283 ft | 543 kts | 98° |
| 2026-05-07 03:29 | 31.91535 | -104.52612 | 35245 ft | 544 kts | 98° |
| 2026-05-07 03:30 | 31.91297 | -104.43761 | 35219 ft | 545 kts | 98° |
| 2026-05-07 03:30 | 31.91050 | -104.34849 | 35207 ft | 544 kts | 98° |
| 2026-05-07 03:31 | 31.90800 | -104.26021 | 35181 ft | 545 kts | 98° |
| 2026-05-07 03:31 | 31.90541 | -104.17127 | 35172 ft | 545 kts | 99° |
| 2026-05-07 03:32 | 31.90277 | -104.08242 | 35164 ft | 545 kts | 99° |
| 2026-05-07 03:32 | 31.90005 | -103.99336 | 35154 ft | 546 kts | 98° |
| 2026-05-07 03:33 | 31.89730 | -103.90507 | 35170 ft | 545 kts | 98° |
| 2026-05-07 03:33 | 31.89447 | -103.81608 | 35172 ft | 545 kts | 99° |
| 2026-05-07 03:34 | 31.89159 | -103.72735 | 35175 ft | 544 kts | 98° |
| 2026-05-07 03:34 | 31.88864 | -103.63874 | 35180 ft | 544 kts | 98° |
| 2026-05-07 03:35 | 31.88562 | -103.54978 | 35184 ft | 545 kts | 98° |
| 2026-05-07 03:35 | 31.88256 | -103.46146 | 35189 ft | 545 kts | 98° |
| 2026-05-07 03:36 | 31.87940 | -103.37219 | 35184 ft | 545 kts | 98° |
| 2026-05-07 03:36 | 31.87620 | -103.28314 | 35164 ft | 544 kts | 99° |
| 2026-05-07 03:37 | 31.88084 | -103.19405 | 35169 ft | 555 kts | 86° |
| 2026-05-07 03:37 | 31.89291 | -103.10480 | 35165 ft | 555 kts | 85° |
| 2026-05-07 03:38 | 31.90496 | -103.01540 | 35168 ft | 555 kts | 86° |
| 2026-05-07 03:38 | 31.91689 | -102.92577 | 35173 ft | 555 kts | 86° |
| 2026-05-07 03:39 | 31.92864 | -102.83673 | 35180 ft | 555 kts | 86° |
| 2026-05-07 03:39 | 31.94040 | -102.74684 | 35185 ft | 554 kts | 86° |
| 2026-05-07 03:40 | 31.95198 | -102.65773 | 35187 ft | 555 kts | 86° |
| 2026-05-07 03:40 | 31.96351 | -102.56846 | 35186 ft | 556 kts | 86° |
| 2026-05-07 03:41 | 31.97508 | -102.47836 | 35184 ft | 555 kts | 86° |
| 2026-05-07 03:41 | 31.98653 | -102.38865 | 35183 ft | 555 kts | 86° |
| 2026-05-07 03:42 | 31.99789 | -102.29915 | 35163 ft | 554 kts | 87° |
| 2026-05-07 03:42 | 32.00916 | -102.20976 | 35161 ft | 554 kts | 86° |
| 2026-05-07 03:43 | 32.02030 | -102.12084 | 35159 ft | 556 kts | 86° |
| 2026-05-07 03:43 | 32.03151 | -102.03101 | 35157 ft | 553 kts | 87° |
| 2026-05-07 03:44 | 32.04258 | -101.94153 | 35155 ft | 556 kts | 86° |
| 2026-05-07 03:44 | 32.05362 | -101.85201 | 35154 ft | 555 kts | 86° |
| 2026-05-07 03:45 | 32.06462 | -101.76207 | 35153 ft | 556 kts | 86° |
| 2026-05-07 03:45 | 32.07546 | -101.67309 | 35152 ft | 554 kts | 86° |
| 2026-05-07 03:46 | 32.08635 | -101.58307 | 35152 ft | 556 kts | 86° |
| 2026-05-07 03:46 | 32.09716 | -101.49321 | 35151 ft | 554 kts | 86° |
| 2026-05-07 03:47 | 32.10790 | -101.40329 | 35135 ft | 554 kts | 86° |
| 2026-05-07 03:47 | 32.11859 | -101.31331 | 35118 ft | 554 kts | 88° |
| 2026-05-07 03:48 | 32.12913 | -101.22394 | 35119 ft | 555 kts | 87° |
| 2026-05-07 03:48 | 32.13965 | -101.13427 | 35117 ft | 554 kts | 87° |
| 2026-05-07 03:49 | 32.15015 | -101.04425 | 35115 ft | 553 kts | 87° |
| 2026-05-07 03:49 | 32.16056 | -100.95430 | 35113 ft | 556 kts | 87° |
| 2026-05-07 03:50 | 32.17090 | -100.86453 | 35111 ft | 554 kts | 88° |
| 2026-05-07 03:50 | 32.18117 | -100.77476 | 35111 ft | 554 kts | 87° |
| 2026-05-07 03:51 | 32.19136 | -100.68506 | 35113 ft | 556 kts | 87° |
| 2026-05-07 03:51 | 32.20152 | -100.59506 | 35122 ft | 555 kts | 87° |
| 2026-05-07 03:52 | 32.21162 | -100.50501 | 35132 ft | 555 kts | 87° |
| 2026-05-07 03:52 | 32.22166 | -100.41495 | 35137 ft | 555 kts | 87° |
| 2026-05-07 03:53 | 32.23168 | -100.32450 | 35123 ft | 552 kts | 88° |
| 2026-05-07 03:53 | 32.24153 | -100.23484 | 35122 ft | 556 kts | 88° |
| 2026-05-07 03:54 | 32.25142 | -100.14445 | 35120 ft | 553 kts | 88° |
| 2026-05-07 03:54 | 32.26118 | -100.05443 | 35113 ft | 555 kts | 88° |
| 2026-05-07 03:55 | 32.27091 | -99.96413 | 35107 ft | 554 kts | 88° |
| 2026-05-07 03:55 | 32.27990 | -99.87415 | 35104 ft | 550 kts | 91° |
| 2026-05-07 03:56 | 32.28493 | -99.78436 | 35097 ft | 552 kts | 92° |
| 2026-05-07 03:56 | 32.28973 | -99.69416 | 34766 ft | 544 kts | 92° |
| 2026-05-07 03:56 | 32.29204 | -99.64989 | 33761 ft | 552 kts | 92° |
| 2026-05-07 03:57 | 32.29440 | -99.60417 | 32669 ft | 560 kts | 92° |
| 2026-05-07 03:57 | 32.29674 | -99.55866 | 31727 ft | 563 kts | 91° |
| 2026-05-07 03:57 | 32.29911 | -99.51265 | 30937 ft | 563 kts | 92° |
| 2026-05-07 03:57 | 32.30148 | -99.46645 | 30296 ft | 560 kts | 92° |
| 2026-05-07 03:58 | 32.30384 | -99.42030 | 29749 ft | 555 kts | 91° |
| 2026-05-07 03:58 | 32.30612 | -99.37551 | 29174 ft | 551 kts | 92° |
| 2026-05-07 03:58 | 32.30838 | -99.33056 | 28569 ft | 547 kts | 92° |
| 2026-05-07 03:58 | 32.31060 | -99.28581 | 27946 ft | 543 kts | 91° |
| 2026-05-07 03:59 | 32.31280 | -99.24132 | 27330 ft | 539 kts | 91° |
| 2026-05-07 03:59 | 32.31495 | -99.19753 | 26721 ft | 535 kts | 91° |
| 2026-05-07 03:59 | 32.31705 | -99.15437 | 26213 ft | 528 kts | 90° |
| 2026-05-07 03:59 | 32.31914 | -99.11156 | 26096 ft | 512 kts | 91° |
| 2026-05-07 04:00 | 32.32113 | -99.07059 | 26080 ft | 495 kts | 91° |
| 2026-05-07 04:00 | 32.32307 | -99.03027 | 26003 ft | 480 kts | 91° |
| 2026-05-07 04:00 | 32.32489 | -98.99182 | 25716 ft | 472 kts | 90° |
| 2026-05-07 04:00 | 32.32670 | -98.95323 | 25211 ft | 469 kts | 90° |
| 2026-05-07 04:01 | 32.32850 | -98.91487 | 24681 ft | 466 kts | 90° |
| 2026-05-07 04:01 | 32.33027 | -98.87699 | 24265 ft | 460 kts | 90° |
| 2026-05-07 04:01 | 32.33202 | -98.83952 | 23837 ft | 454 kts | 89° |
| 2026-05-07 04:01 | 32.33374 | -98.80248 | 23361 ft | 450 kts | 89° |
| 2026-05-07 04:02 | 32.33543 | -98.76578 | 22898 ft | 445 kts | 89° |
| 2026-05-07 04:02 | 32.33709 | -98.72938 | 22457 ft | 440 kts | 88° |
| 2026-05-07 04:02 | 32.33873 | -98.69336 | 22019 ft | 435 kts | 88° |
| 2026-05-07 04:02 | 32.34034 | -98.65781 | 21534 ft | 431 kts | 88° |
| 2026-05-07 04:03 | 32.34192 | -98.62273 | 21081 ft | 427 kts | 88° |
| 2026-05-07 04:03 | 32.34348 | -98.58772 | 20643 ft | 422 kts | 88° |
| 2026-05-07 04:03 | 32.34499 | -98.55347 | 20212 ft | 418 kts | 88° |
| 2026-05-07 04:03 | 32.34649 | -98.51920 | 19766 ft | 413 kts | 88° |
| 2026-05-07 04:04 | 32.34795 | -98.48547 | 19350 ft | 409 kts | 87° |
| 2026-05-07 04:04 | 32.34940 | -98.45213 | 18917 ft | 404 kts | 87° |
| 2026-05-07 04:04 | 32.35080 | -98.41933 | 18466 ft | 401 kts | 87° |
| 2026-05-07 04:04 | 32.35221 | -98.38648 | 18047 ft | 396 kts | 87° |
| 2026-05-07 04:05 | 32.35358 | -98.35415 | 17604 ft | 393 kts | 87° |
| 2026-05-07 04:05 | 32.35492 | -98.32231 | 17188 ft | 388 kts | 87° |
| 2026-05-07 04:05 | 32.35625 | -98.29064 | 16745 ft | 385 kts | 87° |
| 2026-05-07 04:05 | 32.35756 | -98.25916 | 16238 ft | 384 kts | 87° |
| 2026-05-07 04:06 | 32.35886 | -98.22783 | 15732 ft | 383 kts | 87° |
| 2026-05-07 04:06 | 32.36015 | -98.19649 | 15275 ft | 380 kts | 87° |
| 2026-05-07 04:06 | 32.36143 | -98.16527 | 14822 ft | 377 kts | 86° |
| 2026-05-07 04:06 | 32.36269 | -98.13431 | 14374 ft | 375 kts | 86° |
| 2026-05-07 04:07 | 32.36393 | -98.10378 | 13924 ft | 372 kts | 86° |
| 2026-05-07 04:07 | 32.36514 | -98.07362 | 13620 ft | 365 kts | 86° |
| 2026-05-07 04:07 | 32.36632 | -98.04411 | 13555 ft | 351 kts | 86° |
| 2026-05-07 04:07 | 32.36745 | -98.01567 | 13325 ft | 344 kts | 86° |
| 2026-05-07 04:08 | 32.36856 | -97.98756 | 12918 ft | 343 kts | 86° |
| 2026-05-07 04:08 | 32.36967 | -97.95943 | 12542 ft | 340 kts | 86° |
| 2026-05-07 04:08 | 32.37076 | -97.93166 | 12263 ft | 340 kts | 86° |
| 2026-05-07 04:08 | 32.37185 | -97.90362 | 11964 ft | 341 kts | 86° |
| 2026-05-07 04:09 | 32.37295 | -97.87579 | 11753 ft | 339 kts | 86° |
| 2026-05-07 04:09 | 32.37405 | -97.84795 | 11430 ft | 339 kts | 86° |
| 2026-05-07 04:09 | 32.37515 | -97.82004 | 11028 ft | 338 kts | 86° |
| 2026-05-07 04:09 | 32.37622 | -97.79243 | 10672 ft | 335 kts | 86° |
| 2026-05-07 04:10 | 32.37727 | -97.76517 | 10435 ft | 328 kts | 86° |
| 2026-05-07 04:10 | 32.37829 | -97.73854 | 10198 ft | 322 kts | 86° |
| 2026-05-07 04:10 | 32.37928 | -97.71268 | 9956 ft | 316 kts | 86° |
| 2026-05-07 04:10 | 32.38027 | -97.68666 | 9662 ft | 313 kts | 86° |
| 2026-05-07 04:11 | 32.38123 | -97.66117 | 9350 ft | 308 kts | 86° |
| 2026-05-07 04:11 | 32.38388 | -97.63631 | 9062 ft | 300 kts | 71° |
| 2026-05-07 04:11 | 32.39370 | -97.61530 | 8744 ft | 292 kts | 49° |
| 2026-05-07 04:11 | 32.40708 | -97.59759 | 8439 ft | 288 kts | 44° |
| 2026-05-07 04:12 | 32.42131 | -97.58083 | 8127 ft | 284 kts | 42° |
| 2026-05-07 04:12 | 32.43536 | -97.56474 | 7825 ft | 281 kts | 42° |
| 2026-05-07 04:12 | 32.44935 | -97.54881 | 7526 ft | 278 kts | 42° |
| 2026-05-07 04:12 | 32.46318 | -97.53302 | 7230 ft | 275 kts | 43° |
| 2026-05-07 04:13 | 32.47438 | -97.51454 | 6928 ft | 277 kts | 67° |
| 2026-05-07 04:13 | 32.47894 | -97.49277 | 6738 ft | 275 kts | 79° |
| 2026-05-07 04:13 | 32.48150 | -97.46992 | 6540 ft | 277 kts | 82° |
| 2026-05-07 04:13 | 32.48363 | -97.44748 | 6347 ft | 276 kts | 82° |
| 2026-05-07 04:14 | 32.48576 | -97.42484 | 6153 ft | 275 kts | 82° |
| 2026-05-07 04:14 | 32.48786 | -97.40239 | 5961 ft | 274 kts | 82° |
| 2026-05-07 04:14 | 32.48998 | -97.37987 | 5767 ft | 273 kts | 82° |
| 2026-05-07 04:14 | 32.49207 | -97.35763 | 5576 ft | 273 kts | 82° |
| 2026-05-07 04:15 | 32.49417 | -97.33529 | 5384 ft | 272 kts | 83° |
| 2026-05-07 04:15 | 32.49624 | -97.31308 | 5192 ft | 270 kts | 83° |
| 2026-05-07 04:15 | 32.49830 | -97.29101 | 5000 ft | 263 kts | 83° |
| 2026-05-07 04:15 | 32.50069 | -97.26981 | 4830 ft | 256 kts | 74° |
| 2026-05-07 04:16 | 32.50870 | -97.25124 | 4763 ft | 256 kts | 54° |
| 2026-05-07 04:16 | 32.51833 | -97.23361 | 4695 ft | 256 kts | 58° |
| 2026-05-07 04:16 | 32.52697 | -97.21500 | 4614 ft | 255 kts | 61° |
| 2026-05-07 04:16 | 32.53502 | -97.19621 | 4530 ft | 256 kts | 62° |
| 2026-05-07 04:17 | 32.54288 | -97.17744 | 4445 ft | 255 kts | 63° |
| 2026-05-07 04:17 | 32.55072 | -97.15862 | 4361 ft | 254 kts | 62° |
| 2026-05-07 04:17 | 32.55864 | -97.13963 | 4275 ft | 254 kts | 63° |
| 2026-05-07 04:17 | 32.56643 | -97.12093 | 4191 ft | 254 kts | 63° |
| 2026-05-07 04:18 | 32.57424 | -97.10216 | 4108 ft | 253 kts | 63° |
| 2026-05-07 04:18 | 32.58206 | -97.08335 | 4022 ft | 253 kts | 62° |
| 2026-05-07 04:18 | 32.59240 | -97.06677 | 3925 ft | 250 kts | 38° |
| 2026-05-07 04:18 | 32.60829 | -97.05828 | 3822 ft | 249 kts | 10° |
| 2026-05-07 04:19 | 32.62552 | -97.05634 | 3696 ft | 248 kts | 0° |
| 2026-05-07 04:19 | 32.64278 | -97.05650 | 3567 ft | 247 kts | 359° |
| 2026-05-07 04:19 | 32.65997 | -97.05667 | 3455 ft | 246 kts | 359° |
| 2026-05-07 04:19 | 32.67696 | -97.05667 | 3362 ft | 241 kts | 359° |
| 2026-05-07 04:20 | 32.69349 | -97.05653 | 3245 ft | 225 kts | 0° |
| 2026-05-07 04:20 | 32.70854 | -97.05623 | 3188 ft | 208 kts | 0° |
| 2026-05-07 04:20 | 32.72248 | -97.05594 | 3160 ft | 196 kts | 360° |
| 2026-05-07 04:21 | 32.74917 | -97.05567 | 2899 ft | 189 kts | 359° |
| 2026-05-07 04:21 | 32.76241 | -97.05559 | 2673 ft | 186 kts | 359° |
| 2026-05-07 04:21 | 32.77514 | -97.05550 | 2459 ft | 184 kts | 360° |
| 2026-05-07 04:21 | 32.78807 | -97.05542 | 2234 ft | 184 kts | 359° |
| 2026-05-07 04:22 | 32.80072 | -97.05535 | 2016 ft | 179 kts | 360° |
| 2026-05-07 04:22 | 32.81330 | -97.05526 | 1795 ft | 177 kts | 360° |
| 2026-05-07 04:22 | 32.82553 | -97.05518 | 1577 ft | 176 kts | 360° |
| 2026-05-07 04:22 | 32.83785 | -97.05511 | 1355 ft | 174 kts | 360° |
| 2026-05-07 04:23 | 32.84989 | -97.05504 | 1141 ft | 174 kts | 360° |
| 2026-05-07 04:23 | 32.86219 | -97.05496 | 916 ft | 174 kts | 360° |
| 2026-05-07 04:23 | 32.87426 | -97.05489 | 698 ft | 173 kts | 360° |
| 2026-05-07 04:23 | 32.88615 | -97.05484 | 587 ft | 166 kts | 359° |
| 2026-05-07 04:24 | 32.89468 | -97.05479 | 605 ft | 88 kts | 359° |
| 2026-05-07 04:24 | 32.89978 | -97.05484 | 617 ft | 52 kts | 360° |
| 2026-05-07 04:24 | 32.90310 | -97.05479 | 620 ft | 44 kts | 0° |
| 2026-05-07 04:24 | 32.90604 | -97.05479 | 619 ft | 39 kts | 359° |
| 2026-05-07 04:25 | 32.90859 | -97.05481 | 617 ft | 35 kts | 0° |
| 2026-05-07 04:25 | 32.91009 | -97.05525 | 615 ft | 15 kts | 266° |
| 2026-05-07 04:25 | 32.91014 | -97.05634 | 616 ft | 11 kts | 271° |
| 2026-05-07 04:25 | 32.91016 | -97.05720 | 618 ft | 9 kts | 271° |
| 2026-05-07 04:26 | 32.91000 | -97.05775 | 620 ft | 5 kts | 218° |
| 2026-05-07 04:26 | 32.90964 | -97.05787 | 620 ft | 5 kts | 181° |
| 2026-05-07 04:26 | 32.90928 | -97.05782 | 620 ft | 5 kts | 168° |
| 2026-05-07 04:26 | 32.90892 | -97.05776 | 620 ft | 4 kts | 182° |
| 2026-05-07 04:27 | 32.90857 | -97.05778 | 620 ft | 5 kts | 182° |
| 2026-05-07 04:27 | 32.90807 | -97.05780 | 620 ft | 8 kts | 182° |
| 2026-05-07 04:27 | 32.90742 | -97.05784 | 621 ft | 10 kts | 182° |
| 2026-05-07 04:27 | 32.90658 | -97.05789 | 621 ft | 13 kts | 183° |
| 2026-05-07 04:28 | 32.90555 | -97.05793 | 619 ft | 16 kts | 180° |
| 2026-05-07 04:28 | 32.90429 | -97.05795 | 617 ft | 19 kts | 178° |
| 2026-05-07 04:28 | 32.90285 | -97.05788 | 615 ft | 21 kts | 176° |
| 2026-05-07 04:28 | 32.90163 | -97.05788 | 615 ft | 17 kts | 197° |
| 2026-05-07 04:29 | 32.90121 | -97.05924 | 610 ft | 20 kts | 269° |
| 2026-05-07 04:29 | 32.90120 | -97.06081 | 606 ft | 13 kts | 249° |
| 2026-05-07 04:29 | 32.90045 | -97.06104 | 604 ft | 0 kts | 180° |